sensor_id;sensor_type;location;lat;lon;timestamp;temperature;humidity
13462;DHT22;6803;45.264;5.468;2023-08-30T00:02:22;13.30;99.90
13462;DHT22;6803;45.264;5.468;2023-08-30T00:04:52;13.20;99.90
13462;DHT22;6803;45.264;5.468;2023-08-30T00:07:24;13.10;99.90
13462;DHT22;6803;45.264;5.468;2023-08-30T00:09:54;13.10;99.90
13462;DHT22;6803;45.264;5.468;2023-08-30T00:12:25;13.00;99.90
13462;DHT22;6803;45.264;5.468;2023-08-30T00:14:56;12.90;99.90
13462;DHT22;6803;45.264;5.468;2023-08-30T00:17:26;12.70;99.90
13462;DHT22;6803;45.264;5.468;2023-08-30T00:19:57;12.80;99.90
13462;DHT22;6803;45.264;5.468;2023-08-30T00:22:28;12.90;99.90
13462;DHT22;6803;45.264;5.468;2023-08-30T00:25:00;12.90;99.90
13462;DHT22;6803;45.264;5.468;2023-08-30T00:27:30;12.80;99.90
13462;DHT22;6803;45.264;5.468;2023-08-30T00:30:01;12.80;99.90
13462;DHT22;6803;45.264;5.468;2023-08-30T00:32:32;12.80;99.90
13462;DHT22;6803;45.264;5.468;2023-08-30T00:35:04;12.80;99.90
13462;DHT22;6803;45.264;5.468;2023-08-30T00:37:34;12.90;99.90
13462;DHT22;6803;45.264;5.468;2023-08-30T00:40:07;12.90;99.90
13462;DHT22;6803;45.264;5.468;2023-08-30T00:42:38;12.60;99.90
13462;DHT22;6803;45.264;5.468;2023-08-30T00:45:10;12.50;99.90
13462;DHT22;6803;45.264;5.468;2023-08-30T00:47:43;12.40;99.90
13462;DHT22;6803;45.264;5.468;2023-08-30T00:50:14;12.30;99.90
13462;DHT22;6803;45.264;5.468;2023-08-30T00:52:46;12.10;99.90
13462;DHT22;6803;45.264;5.468;2023-08-30T00:55:17;12.10;99.90
13462;DHT22;6803;45.264;5.468;2023-08-30T00:57:47;12.10;99.90
13462;DHT22;6803;45.264;5.468;2023-08-30T01:00:18;12.10;99.90
13462;DHT22;6803;45.264;5.468;2023-08-30T01:02:48;11.90;99.90
13462;DHT22;6803;45.264;5.468;2023-08-30T01:05:19;11.90;99.90
13462;DHT22;6803;45.264;5.468;2023-08-30T01:07:49;11.80;99.90
13462;DHT22;6803;45.264;5.468;2023-08-30T01:10:25;11.80;99.90
13462;DHT22;6803;45.264;5.468;2023-08-30T01:12:57;11.70;99.90
13462;DHT22;6803;45.264;5.468;2023-08-30T01:15:28;11.60;99.90
13462;DHT22;6803;45.264;5.468;2023-08-30T01:17:58;11.50;99.90
13462;DHT22;6803;45.264;5.468;2023-08-30T01:20:30;11.50;99.90
13462;DHT22;6803;45.264;5.468;2023-08-30T01:23:05;11.40;99.90
13462;DHT22;6803;45.264;5.468;2023-08-30T01:25:46;11.40;99.90
13462;DHT22;6803;45.264;5.468;2023-08-30T01:28:18;11.40;99.90
13462;DHT22;6803;45.264;5.468;2023-08-30T01:30:49;11.40;99.90
13462;DHT22;6803;45.264;5.468;2023-08-30T01:33:24;11.40;99.90
13462;DHT22;6803;45.264;5.468;2023-08-30T01:35:58;11.40;99.90
13462;DHT22;6803;45.264;5.468;2023-08-30T01:38:30;11.50;99.90
13462;DHT22;6803;45.264;5.468;2023-08-30T01:41:03;11.60;99.90
13462;DHT22;6803;45.264;5.468;2023-08-30T01:43:36;11.60;99.90
13462;DHT22;6803;45.264;5.468;2023-08-30T01:46:06;11.60;99.90
13462;DHT22;6803;45.264;5.468;2023-08-30T01:48:38;11.70;99.90
13462;DHT22;6803;45.264;5.468;2023-08-30T01:51:11;11.70;99.90
13462;DHT22;6803;45.264;5.468;2023-08-30T01:53:42;11.70;99.90
13462;DHT22;6803;45.264;5.468;2023-08-30T01:56:13;11.70;99.90
13462;DHT22;6803;45.264;5.468;2023-08-30T01:58:44;11.70;99.90
13462;DHT22;6803;45.264;5.468;2023-08-30T02:01:14;11.60;99.90
13462;DHT22;6803;45.264;5.468;2023-08-30T02:03:45;11.60;99.90
13462;DHT22;6803;45.264;5.468;2023-08-30T02:06:20;11.80;99.90
13462;DHT22;6803;45.264;5.468;2023-08-30T02:08:52;11.80;99.90
13462;DHT22;6803;45.264;5.468;2023-08-30T02:11:26;11.50;99.90
13462;DHT22;6803;45.264;5.468;2023-08-30T02:13:58;11.60;99.90
13462;DHT22;6803;45.264;5.468;2023-08-30T02:16:29;11.60;99.90
13462;DHT22;6803;45.264;5.468;2023-08-30T02:19:00;11.40;99.90
13462;DHT22;6803;45.264;5.468;2023-08-30T02:21:31;11.40;99.90
13462;DHT22;6803;45.264;5.468;2023-08-30T02:24:02;11.40;99.90
13462;DHT22;6803;45.264;5.468;2023-08-30T02:26:32;11.40;99.90
13462;DHT22;6803;45.264;5.468;2023-08-30T02:29:03;11.40;99.90
13462;DHT22;6803;45.264;5.468;2023-08-30T02:31:33;11.40;99.90
13462;DHT22;6803;45.264;5.468;2023-08-30T02:34:04;11.50;99.90
13462;DHT22;6803;45.264;5.468;2023-08-30T02:36:34;11.50;99.90
13462;DHT22;6803;45.264;5.468;2023-08-30T02:39:05;11.50;99.90
13462;DHT22;6803;45.264;5.468;2023-08-30T02:41:35;11.40;99.90
13462;DHT22;6803;45.264;5.468;2023-08-30T02:44:07;11.30;99.90
13462;DHT22;6803;45.264;5.468;2023-08-30T02:46:37;11.10;99.90
13462;DHT22;6803;45.264;5.468;2023-08-30T02:49:08;11.00;99.90
13462;DHT22;6803;45.264;5.468;2023-08-30T02:51:41;10.90;99.90
13462;DHT22;6803;45.264;5.468;2023-08-30T02:54:11;10.90;99.90
13462;DHT22;6803;45.264;5.468;2023-08-30T02:56:43;10.80;99.90
13462;DHT22;6803;45.264;5.468;2023-08-30T02:59:14;10.90;99.90
13462;DHT22;6803;45.264;5.468;2023-08-30T03:01:45;10.80;99.90
13462;DHT22;6803;45.264;5.468;2023-08-30T03:06:55;10.80;99.90
13462;DHT22;6803;45.264;5.468;2023-08-30T03:09:25;10.70;99.90
13462;DHT22;6803;45.264;5.468;2023-08-30T03:11:56;10.70;99.90
13462;DHT22;6803;45.264;5.468;2023-08-30T03:14:26;10.70;99.90
13462;DHT22;6803;45.264;5.468;2023-08-30T03:16:56;10.70;99.90
13462;DHT22;6803;45.264;5.468;2023-08-30T03:19:27;10.80;99.90
13462;DHT22;6803;45.264;5.468;2023-08-30T03:21:57;10.80;99.90
13462;DHT22;6803;45.264;5.468;2023-08-30T03:24:29;10.80;99.90
13462;DHT22;6803;45.264;5.468;2023-08-30T03:26:59;10.70;99.90
13462;DHT22;6803;45.264;5.468;2023-08-30T03:29:30;10.60;99.90
13462;DHT22;6803;45.264;5.468;2023-08-30T03:32:01;10.70;99.90
13462;DHT22;6803;45.264;5.468;2023-08-30T03:34:31;10.70;99.90
13462;DHT22;6803;45.264;5.468;2023-08-30T03:37:03;10.70;99.90
13462;DHT22;6803;45.264;5.468;2023-08-30T03:39:34;10.60;99.90
13462;DHT22;6803;45.264;5.468;2023-08-30T03:42:06;10.70;99.90
13462;DHT22;6803;45.264;5.468;2023-08-30T03:44:37;10.50;99.90
13462;DHT22;6803;45.264;5.468;2023-08-30T03:47:08;10.60;99.90
13462;DHT22;6803;45.264;5.468;2023-08-30T03:49:38;10.70;99.90
13462;DHT22;6803;45.264;5.468;2023-08-30T03:52:09;10.60;99.90
13462;DHT22;6803;45.264;5.468;2023-08-30T03:54:39;10.80;99.90
13462;DHT22;6803;45.264;5.468;2023-08-30T03:57:10;10.90;99.90
13462;DHT22;6803;45.264;5.468;2023-08-30T03:59:40;10.90;99.90
13462;DHT22;6803;45.264;5.468;2023-08-30T04:02:11;10.90;99.90
13462;DHT22;6803;45.264;5.468;2023-08-30T04:04:41;10.60;99.90
13462;DHT22;6803;45.264;5.468;2023-08-30T04:07:11;10.50;99.90
13462;DHT22;6803;45.264;5.468;2023-08-30T04:09:42;10.60;99.90
13462;DHT22;6803;45.264;5.468;2023-08-30T04:12:12;10.50;99.90
13462;DHT22;6803;45.264;5.468;2023-08-30T04:14:43;10.50;99.90
13462;DHT22;6803;45.264;5.468;2023-08-30T04:17:14;10.60;99.90
13462;DHT22;6803;45.264;5.468;2023-08-30T04:19:44;10.60;99.90
13462;DHT22;6803;45.264;5.468;2023-08-30T04:22:15;10.70;99.90
13462;DHT22;6803;45.264;5.468;2023-08-30T04:24:45;10.60;99.90
13462;DHT22;6803;45.264;5.468;2023-08-30T04:27:16;10.60;99.90
13462;DHT22;6803;45.264;5.468;2023-08-30T04:29:47;10.40;99.90
13462;DHT22;6803;45.264;5.468;2023-08-30T04:32:17;10.30;99.90
13462;DHT22;6803;45.264;5.468;2023-08-30T04:34:47;10.20;99.90
13462;DHT22;6803;45.264;5.468;2023-08-30T04:37:18;10.20;99.90
13462;DHT22;6803;45.264;5.468;2023-08-30T04:39:49;10.20;99.90
13462;DHT22;6803;45.264;5.468;2023-08-30T04:42:19;10.30;99.90
13462;DHT22;6803;45.264;5.468;2023-08-30T04:44:51;10.30;99.90
13462;DHT22;6803;45.264;5.468;2023-08-30T04:47:23;10.30;99.90
13462;DHT22;6803;45.264;5.468;2023-08-30T04:49:53;10.50;99.90
13462;DHT22;6803;45.264;5.468;2023-08-30T04:52:24;10.50;99.90
13462;DHT22;6803;45.264;5.468;2023-08-30T04:54:55;10.50;99.90
13462;DHT22;6803;45.264;5.468;2023-08-30T05:00:06;10.30;99.90
13462;DHT22;6803;45.264;5.468;2023-08-30T05:02:36;10.10;99.90
13462;DHT22;6803;45.264;5.468;2023-08-30T05:05:08;10.10;99.90
13462;DHT22;6803;45.264;5.468;2023-08-30T05:07:38;10.20;99.90
13462;DHT22;6803;45.264;5.468;2023-08-30T05:10:10;10.20;99.90
13462;DHT22;6803;45.264;5.468;2023-08-30T05:12:41;10.20;99.90
13462;DHT22;6803;45.264;5.468;2023-08-30T05:15:14;10.30;99.90
13462;DHT22;6803;45.264;5.468;2023-08-30T05:17:44;10.30;99.90
13462;DHT22;6803;45.264;5.468;2023-08-30T05:20:16;10.40;99.90
13462;DHT22;6803;45.264;5.468;2023-08-30T05:22:46;10.40;99.90
13462;DHT22;6803;45.264;5.468;2023-08-30T05:25:17;10.60;99.90
13462;DHT22;6803;45.264;5.468;2023-08-30T05:27:48;10.80;99.90
13462;DHT22;6803;45.264;5.468;2023-08-30T05:30:19;10.80;99.90
13462;DHT22;6803;45.264;5.468;2023-08-30T05:32:49;10.90;99.90
13462;DHT22;6803;45.264;5.468;2023-08-30T05:35:22;10.80;99.90
13462;DHT22;6803;45.264;5.468;2023-08-30T05:37:54;10.80;99.90
13462;DHT22;6803;45.264;5.468;2023-08-30T05:40:26;10.90;99.90
13462;DHT22;6803;45.264;5.468;2023-08-30T05:42:56;11.00;99.90
13462;DHT22;6803;45.264;5.468;2023-08-30T05:45:27;11.10;99.90
13462;DHT22;6803;45.264;5.468;2023-08-30T05:47:57;11.20;99.90
13462;DHT22;6803;45.264;5.468;2023-08-30T05:50:28;11.40;99.90
13462;DHT22;6803;45.264;5.468;2023-08-30T05:52:59;11.40;99.90
13462;DHT22;6803;45.264;5.468;2023-08-30T05:55:30;11.50;99.90
13462;DHT22;6803;45.264;5.468;2023-08-30T05:58:00;11.50;99.90
13462;DHT22;6803;45.264;5.468;2023-08-30T06:00:31;11.50;99.90
13462;DHT22;6803;45.264;5.468;2023-08-30T06:03:01;11.40;99.90
13462;DHT22;6803;45.264;5.468;2023-08-30T06:05:32;11.40;99.90
13462;DHT22;6803;45.264;5.468;2023-08-30T06:08:04;11.40;99.90
13462;DHT22;6803;45.264;5.468;2023-08-30T06:10:36;11.40;99.90
13462;DHT22;6803;45.264;5.468;2023-08-30T06:13:07;11.40;99.90
13462;DHT22;6803;45.264;5.468;2023-08-30T06:15:38;11.50;99.90
13462;DHT22;6803;45.264;5.468;2023-08-30T06:18:09;11.60;99.90
13462;DHT22;6803;45.264;5.468;2023-08-30T06:20:42;11.60;99.90
13462;DHT22;6803;45.264;5.468;2023-08-30T06:23:13;11.80;99.90
13462;DHT22;6803;45.264;5.468;2023-08-30T06:25:43;12.00;99.90
13462;DHT22;6803;45.264;5.468;2023-08-30T06:28:14;12.10;99.90
13462;DHT22;6803;45.264;5.468;2023-08-30T06:30:44;12.20;99.90
13462;DHT22;6803;45.264;5.468;2023-08-30T06:33:15;12.20;99.90
13462;DHT22;6803;45.264;5.468;2023-08-30T06:35:47;12.30;99.90
13462;DHT22;6803;45.264;5.468;2023-08-30T06:38:18;12.40;99.90
13462;DHT22;6803;45.264;5.468;2023-08-30T06:40:49;12.60;99.90
13462;DHT22;6803;45.264;5.468;2023-08-30T06:43:20;12.70;99.90
13462;DHT22;6803;45.264;5.468;2023-08-30T06:45:50;12.80;99.90
13462;DHT22;6803;45.264;5.468;2023-08-30T06:48:22;12.90;99.90
13462;DHT22;6803;45.264;5.468;2023-08-30T06:50:56;13.00;99.90
13462;DHT22;6803;45.264;5.468;2023-08-30T06:53:25;13.10;99.90
13462;DHT22;6803;45.264;5.468;2023-08-30T06:58:49;13.20;99.90
13462;DHT22;6803;45.264;5.468;2023-08-30T07:01:19;13.30;99.90
13462;DHT22;6803;45.264;5.468;2023-08-30T07:03:50;13.30;99.90
13462;DHT22;6803;45.264;5.468;2023-08-30T07:06:20;13.30;99.90
13462;DHT22;6803;45.264;5.468;2023-08-30T07:08:51;13.50;99.90
13462;DHT22;6803;45.264;5.468;2023-08-30T07:11:22;13.50;99.90
13462;DHT22;6803;45.264;5.468;2023-08-30T07:13:54;13.70;99.90
13462;DHT22;6803;45.264;5.468;2023-08-30T07:19:08;14.00;99.90
13462;DHT22;6803;45.264;5.468;2023-08-30T07:21:39;14.20;99.90
13462;DHT22;6803;45.264;5.468;2023-08-30T07:24:11;14.30;99.90
13462;DHT22;6803;45.264;5.468;2023-08-30T07:26:42;14.40;99.90
13462;DHT22;6803;45.264;5.468;2023-08-30T07:29:13;14.50;99.90
13462;DHT22;6803;45.264;5.468;2023-08-30T07:31:43;14.70;99.90
13462;DHT22;6803;45.264;5.468;2023-08-30T07:34:14;14.70;99.90
13462;DHT22;6803;45.264;5.468;2023-08-30T07:36:44;14.70;99.90
13462;DHT22;6803;45.264;5.468;2023-08-30T07:39:16;14.80;99.90
13462;DHT22;6803;45.264;5.468;2023-08-30T07:41:47;14.90;99.90
13462;DHT22;6803;45.264;5.468;2023-08-30T07:44:18;15.00;99.90
13462;DHT22;6803;45.264;5.468;2023-08-30T07:46:52;15.00;99.90
13462;DHT22;6803;45.264;5.468;2023-08-30T07:49:23;15.10;99.90
13462;DHT22;6803;45.264;5.468;2023-08-30T07:54:35;15.20;99.90
13462;DHT22;6803;45.264;5.468;2023-08-30T07:57:06;15.10;99.90
13462;DHT22;6803;45.264;5.468;2023-08-30T07:59:37;15.20;99.90
13462;DHT22;6803;45.264;5.468;2023-08-30T08:02:08;15.10;99.90
13462;DHT22;6803;45.264;5.468;2023-08-30T08:04:38;15.40;99.90
13462;DHT22;6803;45.264;5.468;2023-08-30T08:09:48;15.70;99.90
13462;DHT22;6803;45.264;5.468;2023-08-30T08:12:19;15.50;99.90
13462;DHT22;6803;45.264;5.468;2023-08-30T08:14:51;15.60;99.90
13462;DHT22;6803;45.264;5.468;2023-08-30T08:17:43;15.70;99.90
13462;DHT22;6803;45.264;5.468;2023-08-30T08:20:14;15.70;99.90
13462;DHT22;6803;45.264;5.468;2023-08-30T08:24:34;15.70;99.90
13462;DHT22;6803;45.264;5.468;2023-08-30T08:27:07;15.90;99.90
13462;DHT22;6803;45.264;5.468;2023-08-30T08:29:38;15.90;99.90
13462;DHT22;6803;45.264;5.468;2023-08-30T08:34:52;15.90;99.90
13462;DHT22;6803;45.264;5.468;2023-08-30T08:37:25;15.80;99.90
13462;DHT22;6803;45.264;5.468;2023-08-30T08:39:55;16.10;99.90
13462;DHT22;6803;45.264;5.468;2023-08-30T08:42:27;16.30;99.90
13462;DHT22;6803;45.264;5.468;2023-08-30T08:44:59;16.50;99.90
13462;DHT22;6803;45.264;5.468;2023-08-30T08:47:31;17.00;99.90
13462;DHT22;6803;45.264;5.468;2023-08-30T08:50:02;17.00;99.90
13462;DHT22;6803;45.264;5.468;2023-08-30T08:52:33;16.90;99.90
13462;DHT22;6803;45.264;5.468;2023-08-30T08:55:07;17.20;99.90
13462;DHT22;6803;45.264;5.468;2023-08-30T08:57:39;17.40;99.90
13462;DHT22;6803;45.264;5.468;2023-08-30T09:00:14;17.50;99.90
13462;DHT22;6803;45.264;5.468;2023-08-30T09:02:45;17.40;99.90
13462;DHT22;6803;45.264;5.468;2023-08-30T09:05:16;17.70;99.90
13462;DHT22;6803;45.264;5.468;2023-08-30T09:07:48;18.10;99.90
13462;DHT22;6803;45.264;5.468;2023-08-30T09:10:21;18.20;99.90
13462;DHT22;6803;45.264;5.468;2023-08-30T09:12:51;18.10;99.90
13462;DHT22;6803;45.264;5.468;2023-08-30T09:15:29;18.20;99.90
13462;DHT22;6803;45.264;5.468;2023-08-30T09:17:54;18.10;99.90
13462;DHT22;6803;45.264;5.468;2023-08-30T09:20:25;18.10;99.90
13462;DHT22;6803;45.264;5.468;2023-08-30T09:22:55;18.60;99.90
13462;DHT22;6803;45.264;5.468;2023-08-30T09:25:27;18.50;99.90
13462;DHT22;6803;45.264;5.468;2023-08-30T09:34:22;18.50;99.90
13462;DHT22;6803;45.264;5.468;2023-08-30T09:36:55;18.70;99.90
13462;DHT22;6803;45.264;5.468;2023-08-30T09:39:27;18.70;99.90
13462;DHT22;6803;45.264;5.468;2023-08-30T09:41:58;18.70;99.90
13462;DHT22;6803;45.264;5.468;2023-08-30T09:44:29;18.90;99.90
13462;DHT22;6803;45.264;5.468;2023-08-30T09:47:02;19.10;99.90
13462;DHT22;6803;45.264;5.468;2023-08-30T09:52:16;19.60;99.90
13462;DHT22;6803;45.264;5.468;2023-08-30T09:54:49;19.80;99.90
13462;DHT22;6803;45.264;5.468;2023-08-30T09:57:21;19.90;99.90
13462;DHT22;6803;45.264;5.468;2023-08-30T09:59:52;20.20;99.90
13462;DHT22;6803;45.264;5.468;2023-08-30T10:02:25;20.50;99.90
13462;DHT22;6803;45.264;5.468;2023-08-30T10:04:55;20.00;99.90
13462;DHT22;6803;45.264;5.468;2023-08-30T10:07:26;20.20;99.90
13462;DHT22;6803;45.264;5.468;2023-08-30T10:09:57;20.70;99.90
13462;DHT22;6803;45.264;5.468;2023-08-30T10:12:30;21.00;99.90
13462;DHT22;6803;45.264;5.468;2023-08-30T10:15:02;20.60;99.90
13462;DHT22;6803;45.264;5.468;2023-08-30T10:17:34;19.90;99.90
13462;DHT22;6803;45.264;5.468;2023-08-30T10:20:07;19.40;99.90
13462;DHT22;6803;45.264;5.468;2023-08-30T10:22:38;19.70;99.90
13462;DHT22;6803;45.264;5.468;2023-08-30T10:25:13;20.40;99.90
13462;DHT22;6803;45.264;5.468;2023-08-30T10:27:48;21.30;99.90
13462;DHT22;6803;45.264;5.468;2023-08-30T10:30:20;21.80;99.90
13462;DHT22;6803;45.264;5.468;2023-08-30T10:32:51;21.70;99.90
13462;DHT22;6803;45.264;5.468;2023-08-30T10:35:22;21.20;99.90
13462;DHT22;6803;45.264;5.468;2023-08-30T10:37:58;21.10;99.90
13462;DHT22;6803;45.264;5.468;2023-08-30T10:40:29;21.60;99.90
13462;DHT22;6803;45.264;5.468;2023-08-30T10:43:04;21.80;99.90
13462;DHT22;6803;45.264;5.468;2023-08-30T10:48:15;21.30;99.90
13462;DHT22;6803;45.264;5.468;2023-08-30T10:50:48;21.10;99.90
13462;DHT22;6803;45.264;5.468;2023-08-30T10:53:21;20.90;99.90
13462;DHT22;6803;45.264;5.468;2023-08-30T10:56:14;20.40;99.90
13462;DHT22;6803;45.264;5.468;2023-08-30T10:58:45;20.10;99.90
13462;DHT22;6803;45.264;5.468;2023-08-30T11:01:17;20.40;99.90
13462;DHT22;6803;45.264;5.468;2023-08-30T11:03:50;21.00;99.90
13462;DHT22;6803;45.264;5.468;2023-08-30T11:06:22;21.30;99.90
13462;DHT22;6803;45.264;5.468;2023-08-30T11:08:52;21.60;99.90
13462;DHT22;6803;45.264;5.468;2023-08-30T11:11:23;20.90;99.90
13462;DHT22;6803;45.264;5.468;2023-08-30T11:13:54;20.80;99.90
13462;DHT22;6803;45.264;5.468;2023-08-30T11:16:25;20.40;99.90
13462;DHT22;6803;45.264;5.468;2023-08-30T11:18:57;20.40;99.90
13462;DHT22;6803;45.264;5.468;2023-08-30T11:21:27;21.10;99.90
13462;DHT22;6803;45.264;5.468;2023-08-30T11:23:57;21.50;99.90
13462;DHT22;6803;45.264;5.468;2023-08-30T11:26:28;20.80;99.90
13462;DHT22;6803;45.264;5.468;2023-08-30T11:29:04;20.70;99.90
13462;DHT22;6803;45.264;5.468;2023-08-30T11:31:34;21.00;99.90
13462;DHT22;6803;45.264;5.468;2023-08-30T11:34:05;21.20;99.90
13462;DHT22;6803;45.264;5.468;2023-08-30T11:36:36;21.10;99.90
13462;DHT22;6803;45.264;5.468;2023-08-30T11:39:08;21.70;99.90
13462;DHT22;6803;45.264;5.468;2023-08-30T11:41:40;21.50;99.90
13462;DHT22;6803;45.264;5.468;2023-08-30T11:44:12;20.90;99.90
13462;DHT22;6803;45.264;5.468;2023-08-30T11:46:42;20.90;99.90
13462;DHT22;6803;45.264;5.468;2023-08-30T11:49:13;21.10;99.90
13462;DHT22;6803;45.264;5.468;2023-08-30T11:51:44;20.70;99.90
13462;DHT22;6803;45.264;5.468;2023-08-30T11:54:14;20.40;99.90
13462;DHT22;6803;45.264;5.468;2023-08-30T11:56:45;20.20;99.90
13462;DHT22;6803;45.264;5.468;2023-08-30T11:59:20;20.40;99.90
13462;DHT22;6803;45.264;5.468;2023-08-30T12:01:52;20.80;99.90
13462;DHT22;6803;45.264;5.468;2023-08-30T12:04:23;21.30;99.90
13462;DHT22;6803;45.264;5.468;2023-08-30T12:06:54;22.10;99.90
13462;DHT22;6803;45.264;5.468;2023-08-30T12:09:24;22.10;99.90
13462;DHT22;6803;45.264;5.468;2023-08-30T12:12:05;21.40;99.90
13462;DHT22;6803;45.264;5.468;2023-08-30T12:14:36;21.30;99.90
13462;DHT22;6803;45.264;5.468;2023-08-30T12:17:08;21.60;99.90
13462;DHT22;6803;45.264;5.468;2023-08-30T12:19:40;21.30;99.90
13462;DHT22;6803;45.264;5.468;2023-08-30T12:22:10;21.40;99.90
13462;DHT22;6803;45.264;5.468;2023-08-30T12:24:45;21.40;99.90
13462;DHT22;6803;45.264;5.468;2023-08-30T12:27:15;21.10;99.90
13462;DHT22;6803;45.264;5.468;2023-08-30T12:29:46;21.10;99.90
13462;DHT22;6803;45.264;5.468;2023-08-30T12:32:18;20.80;99.90
13462;DHT22;6803;45.264;5.468;2023-08-30T12:34:51;21.90;99.90
13462;DHT22;6803;45.264;5.468;2023-08-30T12:37:23;22.40;99.90
13462;DHT22;6803;45.264;5.468;2023-08-30T12:39:54;23.00;99.90
13462;DHT22;6803;45.264;5.468;2023-08-30T12:42:24;22.80;99.90
13462;DHT22;6803;45.264;5.468;2023-08-30T12:44:55;22.40;99.90
13462;DHT22;6803;45.264;5.468;2023-08-30T12:47:25;22.00;99.90
13462;DHT22;6803;45.264;5.468;2023-08-30T12:49:58;21.40;99.90
13462;DHT22;6803;45.264;5.468;2023-08-30T12:52:29;21.20;99.90
13462;DHT22;6803;45.264;5.468;2023-08-30T12:55:00;21.20;99.90
13462;DHT22;6803;45.264;5.468;2023-08-30T12:57:31;21.40;99.90
13462;DHT22;6803;45.264;5.468;2023-08-30T13:00:02;22.30;99.90
13462;DHT22;6803;45.264;5.468;2023-08-30T13:02:32;23.10;99.90
13462;DHT22;6803;45.264;5.468;2023-08-30T13:05:04;23.70;99.90
13462;DHT22;6803;45.264;5.468;2023-08-30T13:07:35;23.40;99.90
13462;DHT22;6803;45.264;5.468;2023-08-30T13:10:08;22.60;99.90
13462;DHT22;6803;45.264;5.468;2023-08-30T13:12:39;22.10;99.90
13462;DHT22;6803;45.264;5.468;2023-08-30T13:15:11;22.10;99.90
13462;DHT22;6803;45.264;5.468;2023-08-30T13:17:42;22.70;99.90
13462;DHT22;6803;45.264;5.468;2023-08-30T13:20:12;23.50;99.90
13462;DHT22;6803;45.264;5.468;2023-08-30T13:22:43;24.20;99.90
13462;DHT22;6803;45.264;5.468;2023-08-30T13:25:14;24.30;99.90
13462;DHT22;6803;45.264;5.468;2023-08-30T13:27:45;23.60;99.90
13462;DHT22;6803;45.264;5.468;2023-08-30T13:30:17;23.00;99.90
13462;DHT22;6803;45.264;5.468;2023-08-30T13:32:47;23.90;99.90
13462;DHT22;6803;45.264;5.468;2023-08-30T13:35:17;24.80;99.90
13462;DHT22;6803;45.264;5.468;2023-08-30T13:37:48;24.30;99.90
13462;DHT22;6803;45.264;5.468;2023-08-30T13:40:19;24.50;99.90
13462;DHT22;6803;45.264;5.468;2023-08-30T13:42:49;23.90;99.90
13462;DHT22;6803;45.264;5.468;2023-08-30T13:45:20;23.80;99.90
13462;DHT22;6803;45.264;5.468;2023-08-30T13:47:50;23.50;99.90
13462;DHT22;6803;45.264;5.468;2023-08-30T13:53:03;25.50;99.90
13462;DHT22;6803;45.264;5.468;2023-08-30T13:55:35;25.20;99.90
13462;DHT22;6803;45.264;5.468;2023-08-30T13:58:06;25.30;99.90
13462;DHT22;6803;45.264;5.468;2023-08-30T14:00:36;24.90;99.90
13462;DHT22;6803;45.264;5.468;2023-08-30T14:03:06;23.80;99.90
13462;DHT22;6803;45.264;5.468;2023-08-30T14:05:38;22.80;99.90
13462;DHT22;6803;45.264;5.468;2023-08-30T14:08:09;22.10;99.90
13462;DHT22;6803;45.264;5.468;2023-08-30T14:10:41;22.20;99.90
13462;DHT22;6803;45.264;5.468;2023-08-30T14:13:11;22.40;99.90
13462;DHT22;6803;45.264;5.468;2023-08-30T14:15:42;22.80;99.90
13462;DHT22;6803;45.264;5.468;2023-08-30T14:18:14;23.60;99.90
13462;DHT22;6803;45.264;5.468;2023-08-30T14:20:45;23.90;99.90
13462;DHT22;6803;45.264;5.468;2023-08-30T14:23:16;24.70;99.90
13462;DHT22;6803;45.264;5.468;2023-08-30T14:25:46;24.90;99.90
13462;DHT22;6803;45.264;5.468;2023-08-30T14:28:18;25.40;99.90
13462;DHT22;6803;45.264;5.468;2023-08-30T14:30:50;25.50;99.90
13462;DHT22;6803;45.264;5.468;2023-08-30T14:33:21;25.80;99.90
13462;DHT22;6803;45.264;5.468;2023-08-30T14:35:51;25.10;99.90
13462;DHT22;6803;45.264;5.468;2023-08-30T14:38:22;24.60;99.90
13462;DHT22;6803;45.264;5.468;2023-08-30T14:40:57;24.30;99.90
13462;DHT22;6803;45.264;5.468;2023-08-30T14:43:28;24.10;99.90
13462;DHT22;6803;45.264;5.468;2023-08-30T14:46:02;24.80;99.90
13462;DHT22;6803;45.264;5.468;2023-08-30T14:48:38;25.00;99.90
13462;DHT22;6803;45.264;5.468;2023-08-30T14:53:49;24.90;99.90
13462;DHT22;6803;45.264;5.468;2023-08-30T14:56:20;24.70;99.90
13462;DHT22;6803;45.264;5.468;2023-08-30T14:58:51;25.00;99.90
13462;DHT22;6803;45.264;5.468;2023-08-30T15:01:21;25.90;99.90
13462;DHT22;6803;45.264;5.468;2023-08-30T15:03:52;25.20;99.90
13462;DHT22;6803;45.264;5.468;2023-08-30T15:06:22;25.30;99.90
13462;DHT22;6803;45.264;5.468;2023-08-30T15:08:53;25.60;99.80
13462;DHT22;6803;45.264;5.468;2023-08-30T15:11:24;26.20;99.40
13462;DHT22;6803;45.264;5.468;2023-08-30T15:13:55;26.00;99.80
13462;DHT22;6803;45.264;5.468;2023-08-30T15:16:25;26.50;99.90
13462;DHT22;6803;45.264;5.468;2023-08-30T15:18:55;26.90;99.60
13462;DHT22;6803;45.264;5.468;2023-08-30T15:21:26;26.70;99.40
13462;DHT22;6803;45.264;5.468;2023-08-30T15:23:57;26.00;99.90
13462;DHT22;6803;45.264;5.468;2023-08-30T15:26:28;25.70;99.90
13462;DHT22;6803;45.264;5.468;2023-08-30T15:28:58;25.60;99.60
13462;DHT22;6803;45.264;5.468;2023-08-30T15:31:28;25.70;99.80
13462;DHT22;6803;45.264;5.468;2023-08-30T15:33:59;26.00;99.80
13462;DHT22;6803;45.264;5.468;2023-08-30T15:36:31;25.70;99.90
13462;DHT22;6803;45.264;5.468;2023-08-30T15:39:01;25.70;99.30
13462;DHT22;6803;45.264;5.468;2023-08-30T15:41:33;25.00;99.40
13462;DHT22;6803;45.264;5.468;2023-08-30T15:44:04;24.70;99.90
13462;DHT22;6803;45.264;5.468;2023-08-30T15:46:35;24.20;99.90
13462;DHT22;6803;45.264;5.468;2023-08-30T15:49:05;24.40;99.90
13462;DHT22;6803;45.264;5.468;2023-08-30T15:51:36;23.90;99.90
13462;DHT22;6803;45.264;5.468;2023-08-30T15:54:07;23.60;99.90
13462;DHT22;6803;45.264;5.468;2023-08-30T15:56:38;23.40;99.90
13462;DHT22;6803;45.264;5.468;2023-08-30T15:59:08;23.10;99.90
13462;DHT22;6803;45.264;5.468;2023-08-30T16:01:39;23.00;99.90
13462;DHT22;6803;45.264;5.468;2023-08-30T16:04:10;23.00;99.90
13462;DHT22;6803;45.264;5.468;2023-08-30T16:06:41;22.70;99.90
13462;DHT22;6803;45.264;5.468;2023-08-30T16:09:13;22.50;99.90
13462;DHT22;6803;45.264;5.468;2023-08-30T16:11:44;22.30;99.90
13462;DHT22;6803;45.264;5.468;2023-08-30T16:14:14;22.30;99.90
13462;DHT22;6803;45.264;5.468;2023-08-30T16:16:45;22.20;99.90
13462;DHT22;6803;45.264;5.468;2023-08-30T16:19:16;22.10;99.90
13462;DHT22;6803;45.264;5.468;2023-08-30T16:21:51;21.90;99.90
13462;DHT22;6803;45.264;5.468;2023-08-30T16:24:23;21.70;99.90
13462;DHT22;6803;45.264;5.468;2023-08-30T16:26:55;21.60;99.90
13462;DHT22;6803;45.264;5.468;2023-08-30T16:29:27;21.50;99.90
13462;DHT22;6803;45.264;5.468;2023-08-30T16:31:57;21.60;99.90
13462;DHT22;6803;45.264;5.468;2023-08-30T16:34:28;21.70;99.90
13462;DHT22;6803;45.264;5.468;2023-08-30T16:36:58;21.70;99.90
13462;DHT22;6803;45.264;5.468;2023-08-30T16:39:29;21.50;99.90
13462;DHT22;6803;45.264;5.468;2023-08-30T16:42:00;21.60;99.90
13462;DHT22;6803;45.264;5.468;2023-08-30T16:44:30;21.60;99.90
13462;DHT22;6803;45.264;5.468;2023-08-30T16:47:01;21.50;99.90
13462;DHT22;6803;45.264;5.468;2023-08-30T16:49:33;21.40;99.90